Time;durP1;ratioP1;P1;durP2;ratioP2;P2;SDS_P1;SDS_P2;PMS_P1;PMS_P2;Temp;Humidity;BMP_temperature;BMP_pressure;BME280_temperature;BME280_humidity;BME280_pressure;Samples;Min_cycle;Max_cycle;Signal;HPM_P1;HPM_P2
2022/09/14 00:01:27;;;;;;;3.42;0.90;;;15.40;99.90;;;;;;5036414;28;20379;-75
2022/09/14 00:03:55;;;;;;;3.08;1.00;;;15.50;99.90;;;;;;5036143;28;20108;-76
2022/09/14 00:06:21;;;;;;;2.10;1.00;;;15.40;99.90;;;;;;5036373;28;20033;-75
2022/09/14 00:08:51;;;;;;;4.40;1.20;;;15.50;99.90;;;;;;5036029;28;20105;-75
2022/09/14 00:11:17;;;;;;;3.35;0.98;;;15.40;99.90;;;;;;5036141;28;20108;-75
2022/09/14 00:13:44;;;;;;;2.72;1.00;;;15.40;99.90;;;;;;5036024;28;20056;-75
2022/09/14 00:16:17;;;;;;;2.30;1.05;;;15.40;99.90;;;;;;5035906;28;20096;-75
2022/09/14 00:18:43;;;;;;;2.75;1.20;;;15.30;99.90;;;;;;5035803;28;20025;-74
2022/09/14 00:21:10;;;;;;;3.28;1.42;;;15.20;99.90;;;;;;5035919;28;20022;-75
2022/09/14 00:23:38;;;;;;;4.22;1.17;;;15.10;99.90;;;;;;5035756;28;20033;-75
2022/09/14 00:26:10;;;;;;;2.80;1.10;;;15.00;99.90;;;;;;5035720;28;20536;-76
2022/09/14 00:28:42;;;;;;;2.00;1.00;;;15.00;99.90;;;;;;5035968;28;20034;-75
2022/09/14 00:31:08;;;;;;;2.60;1.35;;;15.00;99.90;;;;;;5035475;28;20029;-75
2022/09/14 00:33:34;;;;;;;3.30;1.20;;;15.00;99.90;;;;;;5034379;28;20025;-75
2022/09/14 00:36:12;;;;;;;3.72;1.17;;;15.10;99.90;;;;;;5035500;28;20025;-76
2022/09/14 00:38:39;;;;;;;2.20;1.27;;;15.10;99.90;;;;;;5036014;28;20470;-75
2022/09/14 00:41:07;;;;;;;4.07;1.35;;;15.20;99.90;;;;;;5035364;28;20032;-75
2022/09/14 00:43:50;;;;;;;2.60;1.35;;;15.10;99.90;;;;;;5035389;28;20021;-75
2022/09/14 00:46:15;;;;;;;3.15;1.00;;;15.00;99.90;;;;;;5035420;28;20017;-75
2022/09/14 00:48:41;;;;;;;2.25;1.17;;;14.90;99.90;;;;;;5035216;28;20048;-75
2022/09/14 00:51:07;;;;;;;2.10;1.10;;;14.80;99.90;;;;;;5035370;28;20018;-74
2022/09/14 00:53:32;;;;;;;1.92;1.10;;;14.80;99.90;;;;;;5035201;28;20059;-75
2022/09/14 00:55:58;;;;;;;2.25;1.00;;;14.80;99.90;;;;;;5034231;28;20546;-75
2022/09/14 00:58:24;;;;;;;4.38;1.60;;;14.80;99.90;;;;;;5034381;28;20481;-75
2022/09/14 01:00:49;;;;;;;3.55;1.17;;;14.80;99.90;;;;;;5034881;28;20021;-75
2022/09/14 01:03:15;;;;;;;2.63;0.98;;;14.90;99.90;;;;;;5035000;28;20022;-75
2022/09/14 01:06:25;;;;;;;3.78;1.02;;;14.90;99.90;;;;;;5035495;28;20454;-75
2022/09/14 01:09:03;;;;;;;3.20;1.00;;;14.90;99.90;;;;;;5034671;28;20061;-75
2022/09/14 01:11:34;;;;;;;4.68;1.20;;;14.90;99.90;;;;;;5034702;28;20025;-75
2022/09/14 01:14:21;;;;;;;2.20;1.08;;;15.00;99.90;;;;;;5034822;28;20080;-75
2022/09/14 01:17:05;;;;;;;2.20;1.00;;;15.00;99.90;;;;;;5034861;28;20017;-75
2022/09/14 01:19:58;;;;;;;2.63;0.90;;;15.00;99.90;;;;;;5034977;28;20021;-75
2022/09/14 01:22:49;;;;;;;3.85;1.23;;;15.00;99.90;;;;;;5034683;28;20401;-75
2022/09/14 01:25:20;;;;;;;1.35;0.90;;;15.00;99.90;;;;;;5034915;28;20521;-75
2022/09/14 01:27:48;;;;;;;5.85;1.30;;;15.00;99.90;;;;;;5035134;28;20108;-75
2022/09/14 01:30:21;;;;;;;3.13;0.93;;;15.00;99.90;;;;;;5034793;28;20108;-75
2022/09/14 01:32:49;;;;;;;3.75;1.00;;;15.00;99.90;;;;;;5034650;28;20479;-75
2022/09/14 01:35:33;;;;;;;2.28;1.08;;;15.00;99.90;;;;;;5034724;28;20022;-75
2022/09/14 01:38:15;;;;;;;2.17;0.90;;;15.00;99.90;;;;;;5034872;28;20017;-75
2022/09/14 01:40:48;;;;;;;2.15;1.20;;;15.10;99.90;;;;;;5034514;28;20113;-75
2022/09/14 01:43:33;;;;;;;2.70;1.00;;;15.00;99.90;;;;;;5034525;28;20417;-75
2022/09/14 01:46:07;;;;;;;3.85;1.15;;;15.00;99.90;;;;;;5029084;28;20029;-74
2022/09/14 01:48:48;;;;;;;5.15;1.48;;;14.90;99.90;;;;;;5034224;28;20030;-75
2022/09/14 01:51:22;;;;;;;1.92;1.17;;;14.80;99.90;;;;;;5034311;28;20022;-74
2022/09/14 01:54:04;;;;;;;2.80;1.63;;;14.70;99.90;;;;;;5035101;28;20104;-75
2022/09/14 01:56:36;;;;;;;7.00;1.20;;;14.70;99.90;;;;;;5034587;28;20469;-74
2022/09/14 01:59:12;;;;;;;2.42;0.90;;;14.60;99.90;;;;;;5034062;28;20021;-75
2022/09/14 02:02:04;;;;;;;2.47;1.25;;;14.60;99.90;;;;;;5033886;28;20033;-75
2022/09/14 02:04:44;;;;;;;4.07;1.30;;;14.70;99.90;;;;;;5033235;28;20034;-75
2022/09/14 02:07:10;;;;;;;1.92;0.88;;;14.70;99.90;;;;;;5034198;28;20535;-75
2022/09/14 02:09:37;;;;;;;2.30;1.13;;;14.70;99.90;;;;;;5032856;28;20049;-75
2022/09/14 02:12:03;;;;;;;1.90;0.88;;;14.80;99.90;;;;;;5033877;28;20036;-75
2022/09/14 02:14:29;;;;;;;4.18;1.13;;;14.80;99.90;;;;;;5033715;28;20090;-75
2022/09/14 02:16:56;;;;;;;1.70;0.90;;;14.80;99.90;;;;;;5033707;28;20035;-75
2022/09/14 02:19:23;;;;;;;1.60;0.82;;;14.70;99.90;;;;;;5033659;28;20025;-75
2022/09/14 02:21:49;;;;;;;2.58;0.90;;;14.70;99.90;;;;;;5033830;28;20040;-75
2022/09/14 02:24:15;;;;;;;1.73;0.90;;;14.70;99.90;;;;;;5034179;28;20021;-75
2022/09/14 02:26:41;;;;;;;3.15;0.85;;;14.70;99.90;;;;;;5034095;28;20033;-76
2022/09/14 02:29:07;;;;;;;1.30;0.77;;;14.70;99.90;;;;;;5032276;28;20083;-76
2022/09/14 02:31:51;;;;;;;1.85;1.10;;;14.80;99.90;;;;;;5033364;28;20385;-75
2022/09/14 02:34:48;;;;;;;1.67;0.90;;;14.80;99.90;;;;;;5032286;28;20048;-75
2022/09/14 02:37:34;;;;;;;2.15;1.00;;;14.80;99.90;;;;;;5033756;28;20033;-75
2022/09/14 02:40:08;;;;;;;1.30;0.90;;;14.70;99.90;;;;;;5032184;28;20033;-75
2022/09/14 02:42:52;;;;;;;5.20;1.25;;;14.70;99.90;;;;;;5033583;28;20029;-75
2022/09/14 02:45:18;;;;;;;1.77;0.88;;;14.70;99.90;;;;;;5033962;28;20021;-75
2022/09/14 02:47:49;;;;;;;2.17;1.00;;;14.70;99.90;;;;;;5033338;28;20048;-76
2022/09/14 02:50:36;;;;;;;3.30;0.90;;;14.70;99.90;;;;;;5033551;28;20032;-75
2022/09/14 02:53:23;;;;;;;3.03;1.02;;;14.60;99.90;;;;;;5033572;28;20109;-76
2022/09/14 02:55:54;;;;;;;2.83;1.05;;;14.60;99.90;;;;;;5033279;28;20017;-76
2022/09/14 02:58:20;;;;;;;;;;;14.60;99.90;;;;;;5033929;28;20017;-75
2022/09/14 03:00:47;;;;;;;3.08;1.02;;;14.60;99.90;;;;;;5033080;28;20324;-75
2022/09/14 03:03:16;;;;;;;2.15;1.00;;;14.60;99.90;;;;;;5031859;28;20426;-75
2022/09/14 03:05:43;;;;;;;1.67;0.88;;;14.60;99.90;;;;;;5033688;28;20036;-76
2022/09/14 03:08:09;;;;;;;1.95;1.10;;;14.60;99.90;;;;;;5033940;28;20409;-75
2022/09/14 03:10:35;;;;;;;3.92;0.98;;;14.60;99.90;;;;;;5031768;28;20026;-75
2022/09/14 03:13:01;;;;;;;2.90;1.08;;;14.60;99.90;;;;;;5032988;28;20032;-75
2022/09/14 03:15:28;;;;;;;2.35;1.00;;;14.60;99.90;;;;;;5033053;28;20025;-75
2022/09/14 03:17:54;;;;;;;2.03;1.00;;;14.60;99.90;;;;;;5033025;28;20041;-75
2022/09/14 03:20:25;;;;;;;2.95;0.90;;;14.60;99.90;;;;;;5033228;28;20025;-75
2022/09/14 03:22:51;;;;;;;;;;;14.60;99.90;;;;;;5036850;28;20017;-75
2022/09/14 03:25:21;;;;;;;2.95;1.05;;;14.60;99.90;;;;;;5037680;28;20316;-76
2022/09/14 03:27:52;;;;;;;2.88;1.40;;;14.60;99.90;;;;;;5036811;28;20038;-75
2022/09/14 03:30:19;;;;;;;1.48;0.90;;;14.60;99.90;;;;;;5036855;28;20030;-74
2022/09/14 03:32:45;;;;;;;2.20;1.00;;;14.60;99.90;;;;;;5045004;28;20025;-75
2022/09/14 03:35:11;;;;;;;2.55;1.10;;;14.60;99.90;;;;;;5056041;28;20029;-75
2022/09/14 03:37:38;;;;;;;2.22;1.13;;;14.60;99.90;;;;;;5053646;28;20465;-74
2022/09/14 03:40:06;;;;;;;2.45;1.15;;;14.60;99.90;;;;;;5035492;28;20542;-75
2022/09/14 03:42:32;;;;;;;3.95;1.40;;;14.60;99.90;;;;;;5036710;28;20049;-75
2022/09/14 03:44:58;;;;;;;4.03;1.35;;;14.60;99.90;;;;;;5036750;28;20044;-75
2022/09/14 03:47:24;;;;;;;2.05;0.90;;;14.60;99.90;;;;;;5036642;28;20374;-74
2022/09/14 03:49:49;;;;;;;1.23;0.80;;;14.60;99.90;;;;;;5036655;28;20025;-75
2022/09/14 03:52:16;;;;;;;3.05;1.38;;;14.50;99.90;;;;;;5036371;28;20037;-74
2022/09/14 03:54:41;;;;;;;3.20;1.05;;;14.50;99.90;;;;;;5035607;28;20060;-74
2022/09/14 03:57:07;;;;;;;2.25;1.17;;;14.50;99.90;;;;;;5035149;28;20548;-74
2022/09/14 03:59:33;;;;;;;2.72;0.95;;;14.50;99.90;;;;;;5036458;28;20029;-74
2022/09/14 04:01:59;;;;;;;2.45;1.17;;;14.50;99.90;;;;;;5035017;28;20046;-75
2022/09/14 04:04:26;;;;;;;2.78;1.30;;;14.40;99.90;;;;;;5036426;28;20034;-75
2022/09/14 04:06:51;;;;;;;3.17;1.23;;;14.30;99.90;;;;;;5036381;28;20052;-74
2022/09/14 04:09:18;;;;;;;2.88;1.20;;;14.30;99.90;;;;;;5036029;28;20100;-74
2022/09/14 04:11:44;;;;;;;3.00;0.77;;;14.20;99.90;;;;;;5036091;28;20372;-74
2022/09/14 04:14:10;;;;;;;3.70;0.95;;;14.20;99.90;;;;;;5036150;28;20533;-75
2022/09/14 04:16:36;;;;;;;3.60;1.33;;;14.20;99.90;;;;;;5036137;28;20417;-75
2022/09/14 04:19:02;;;;;;;4.07;1.52;;;14.20;99.90;;;;;;5034515;28;20100;-74
2022/09/14 04:21:28;;;;;;;2.80;1.17;;;14.20;99.90;;;;;;5035089;28;20452;-74
2022/09/14 04:23:56;;;;;;;2.78;1.23;;;14.20;99.90;;;;;;5035172;28;20113;-74
2022/09/14 04:26:23;;;;;;;4.80;1.25;;;14.20;99.90;;;;;;5035148;28;20021;-74
2022/09/14 04:28:49;;;;;;;3.75;1.38;;;14.20;99.90;;;;;;5034119;28;20041;-75
2022/09/14 04:31:15;;;;;;;3.22;1.10;;;14.10;99.90;;;;;;5035546;28;20419;-75
2022/09/14 04:33:42;;;;;;;3.58;1.33;;;14.10;99.90;;;;;;5033170;28;20029;-75
2022/09/14 04:36:09;;;;;;;2.67;1.17;;;14.10;99.90;;;;;;5035797;28;20029;-75
2022/09/14 04:38:37;;;;;;;2.70;1.27;;;14.00;99.90;;;;;;5035586;28;20017;-75
2022/09/14 04:41:11;;;;;;;2.00;1.10;;;14.10;99.90;;;;;;5035636;28;20493;-75
2022/09/14 04:43:38;;;;;;;1.45;1.00;;;14.10;99.90;;;;;;5035485;28;20033;-75
2022/09/14 04:46:11;;;;;;;3.35;1.20;;;14.10;99.90;;;;;;5035628;28;20079;-76
2022/09/14 04:48:37;;;;;;;1.65;0.98;;;14.20;99.90;;;;;;5035882;28;20025;-76
2022/09/14 04:51:07;;;;;;;5.38;1.75;;;14.20;99.90;;;;;;5035139;28;20104;-76
2022/09/14 04:53:34;;;;;;;2.30;1.30;;;14.20;99.90;;;;;;5035212;28;20048;-76
2022/09/14 04:56:08;;;;;;;2.55;1.30;;;14.30;99.90;;;;;;5035382;28;20075;-76
2022/09/14 04:58:35;;;;;;;3.13;1.35;;;14.30;99.90;;;;;;5035407;28;20025;-76
2022/09/14 05:01:02;;;;;;;2.30;1.35;;;14.30;99.90;;;;;;5033689;28;20033;-76
2022/09/14 05:03:28;;;;;;;5.13;1.95;;;14.30;99.90;;;;;;5035020;28;20022;-76
2022/09/14 05:05:53;;;;;;;3.17;1.52;;;14.30;99.90;;;;;;5034040;28;20501;-76
2022/09/14 05:08:19;;;;;;;3.28;1.70;;;14.30;99.90;;;;;;5033759;28;20033;-76
2022/09/14 05:10:45;;;;;;;3.30;2.00;;;14.30;99.90;;;;;;5034802;28;20126;-76
2022/09/14 05:13:11;;;;;;;4.90;1.80;;;14.30;99.90;;;;;;5033514;28;20045;-76
2022/09/14 05:15:36;;;;;;;2.88;1.55;;;14.30;99.90;;;;;;5035114;28;20144;-76
2022/09/14 05:18:02;;;;;;;3.78;1.77;;;14.30;99.90;;;;;;5034913;28;20021;-76
2022/09/14 05:20:28;;;;;;;4.03;2.20;;;14.30;99.90;;;;;;5033403;28;20057;-76
2022/09/14 05:22:54;;;;;;;7.15;2.85;;;14.30;99.90;;;;;;5033332;28;20048;-76
2022/09/14 05:25:19;;;;;;;4.45;2.20;;;14.30;99.90;;;;;;5033342;28;20029;-75
2022/09/14 05:27:45;;;;;;;4.32;2.38;;;14.30;99.90;;;;;;5033287;28;20061;-76
2022/09/14 05:30:11;;;;;;;4.45;2.08;;;14.20;99.90;;;;;;5034487;28;20083;-76
2022/09/14 05:32:37;;;;;;;5.28;2.10;;;14.20;99.90;;;;;;5033060;28;20033;-76
2022/09/14 05:35:02;;;;;;;3.67;1.98;;;14.30;99.90;;;;;;5033262;28;20076;-76
2022/09/14 05:37:28;;;;;;;4.93;1.80;;;14.30;99.90;;;;;;5034370;28;20121;-76
2022/09/14 05:39:54;;;;;;;3.78;1.77;;;14.30;99.90;;;;;;5034625;28;20381;-76
2022/09/14 05:42:19;;;;;;;2.78;1.83;;;14.30;99.90;;;;;;5033036;28;20025;-76
2022/09/14 05:44:45;;;;;;;6.85;1.98;;;14.30;99.90;;;;;;5032683;28;20033;-76
2022/09/14 05:47:11;;;;;;;2.75;1.63;;;14.40;99.90;;;;;;5034198;28;20057;-76
2022/09/14 05:49:36;;;;;;;3.65;1.80;;;14.40;99.90;;;;;;5032940;28;20033;-76
2022/09/14 05:52:02;;;;;;;3.47;1.80;;;14.40;99.90;;;;;;5034029;28;20033;-76
2022/09/14 05:54:28;;;;;;;3.03;1.48;;;14.50;99.90;;;;;;5034617;28;20096;-76
2022/09/14 05:56:54;;;;;;;3.28;1.40;;;14.50;99.90;;;;;;5034270;28;20032;-76
2022/09/14 05:59:19;;;;;;;2.40;1.40;;;14.50;99.90;;;;;;5032843;28;20025;-76
2022/09/14 06:01:45;;;;;;;3.85;1.40;;;14.60;99.90;;;;;;5033749;28;20037;-76
2022/09/14 06:04:11;;;;;;;2.97;1.42;;;14.60;99.90;;;;;;5032758;28;20025;-75
2022/09/14 06:06:36;;;;;;;3.15;1.20;;;14.60;99.90;;;;;;5033863;28;20033;-76
2022/09/14 06:09:03;;;;;;;3.55;1.50;;;14.60;99.90;;;;;;5033852;28;20069;-76
2022/09/14 06:11:32;;;;;;;2.60;1.48;;;14.70;99.90;;;;;;5032365;28;20079;-76
2022/09/14 06:13:58;;;;;;;4.15;1.77;;;14.70;99.90;;;;;;5033770;28;20044;-76
2022/09/14 06:16:26;;;;;;;5.30;2.17;;;14.70;99.90;;;;;;5033930;28;20029;-76
2022/09/14 06:19:00;;;;;;;5.50;1.70;;;14.80;99.90;;;;;;5033976;28;20382;-76
2022/09/14 06:21:33;;;;;;;5.25;1.50;;;14.80;99.90;;;;;;5032341;28;20053;-76
2022/09/14 06:23:59;;;;;;;3.28;1.52;;;14.80;99.90;;;;;;5033932;28;20029;-76
2022/09/14 06:26:25;;;;;;;3.08;1.55;;;14.80;99.90;;;;;;5033865;28;20029;-76
2022/09/14 06:28:52;;;;;;;4.32;1.70;;;14.80;99.90;;;;;;5033540;28;20025;-76
2022/09/14 06:31:21;;;;;;;2.58;1.48;;;14.90;99.90;;;;;;5032076;28;20037;-76
2022/09/14 06:33:48;;;;;;;2.30;1.25;;;14.90;99.90;;;;;;5033535;28;20505;-76
2022/09/14 06:36:20;;;;;;;3.35;1.73;;;14.90;99.90;;;;;;5033449;28;20033;-76
2022/09/14 06:38:50;;;;;;;5.18;2.03;;;14.90;99.90;;;;;;5033697;28;20032;-76
2022/09/14 06:41:20;;;;;;;4.25;1.45;;;14.90;99.90;;;;;;5033687;28;20029;-76
2022/09/14 06:43:46;;;;;;;2.60;1.33;;;14.90;99.90;;;;;;5033944;28;20438;-76
2022/09/14 06:46:18;;;;;;;3.85;1.30;;;14.90;99.90;;;;;;5033591;28;20029;-76
2022/09/14 06:48:47;;;;;;;4.43;1.30;;;14.90;99.90;;;;;;5032122;28;20026;-76
2022/09/14 06:51:23;;;;;;;3.28;1.27;;;14.90;99.90;;;;;;5033320;28;20030;-75
2022/09/14 06:53:49;;;;;;;3.08;1.50;;;14.90;99.90;;;;;;5033578;28;20030;-76
2022/09/14 06:56:16;;;;;;;2.85;1.52;;;15.00;99.90;;;;;;5033902;28;20076;-76
2022/09/14 06:58:42;;;;;;;3.05;1.60;;;15.00;99.90;;;;;;5037658;28;20029;-75
2022/09/14 07:01:14;;;;;;;4.82;1.52;;;15.00;99.90;;;;;;5036147;28;20063;-74
2022/09/14 07:03:42;;;;;;;3.35;1.77;;;15.00;99.90;;;;;;5037596;28;20026;-76
2022/09/14 07:06:11;;;;;;;2.42;1.38;;;15.00;99.90;;;;;;5035985;28;20442;-76
2022/09/14 07:08:37;;;;;;;2.30;1.45;;;15.00;99.90;;;;;;5035890;28;20059;-76
2022/09/14 07:11:04;;;;;;;3.10;1.60;;;15.10;99.90;;;;;;5037050;28;20105;-76
2022/09/14 07:13:30;;;;;;;3.22;1.40;;;15.10;99.90;;;;;;5037108;28;20025;-76
2022/09/14 07:15:56;;;;;;;2.50;1.50;;;15.20;99.90;;;;;;5036149;28;20592;-76
2022/09/14 07:18:26;;;;;;;3.60;1.63;;;15.20;99.90;;;;;;5037259;28;20053;-76
2022/09/14 07:20:52;;;;;;;4.07;1.50;;;15.30;99.90;;;;;;5036339;28;20382;-76
2022/09/14 07:23:17;;;;;;;2.90;1.50;;;15.40;99.90;;;;;;5037015;28;20393;-76
2022/09/14 07:25:43;;;;;;;5.30;1.42;;;15.40;99.90;;;;;;5035593;28;20430;-76
2022/09/14 07:28:09;;;;;;;2.58;1.35;;;15.50;99.90;;;;;;5037526;28;20040;-75
2022/09/14 07:30:36;;;;;;;2.38;1.23;;;15.50;99.90;;;;;;5037362;28;20029;-74
2022/09/14 07:33:03;;;;;;;5.65;1.73;;;15.60;99.90;;;;;;5035629;28;20481;-74
2022/09/14 07:35:29;;;;;;;5.68;1.60;;;15.60;99.90;;;;;;5036804;28;20469;-74
2022/09/14 07:37:55;;;;;;;3.22;1.77;;;15.70;99.90;;;;;;5035493;28;20104;-74
2022/09/14 07:40:25;;;;;;;4.75;1.60;;;15.70;99.90;;;;;;5036850;28;20445;-74
2022/09/14 07:42:52;;;;;;;3.50;1.60;;;15.80;99.90;;;;;;5036642;28;20064;-75
2022/09/14 07:45:19;;;;;;;8.32;1.95;;;15.90;99.90;;;;;;5036527;28;20389;-75
2022/09/14 07:47:44;;;;;;;6.13;1.52;;;16.00;99.90;;;;;;5036797;28;20029;-75
2022/09/14 07:50:10;;;;;;;4.10;1.98;;;16.10;99.90;;;;;;5036965;28;20347;-75
2022/09/14 07:52:37;;;;;;;2.78;1.85;;;16.20;99.90;;;;;;5035060;28;20032;-75
2022/09/14 07:55:04;;;;;;;3.55;2.10;;;16.30;99.90;;;;;;5035064;28;20030;-75
2022/09/14 07:57:30;;;;;;;4.85;2.47;;;16.40;99.90;;;;;;5036858;28;20022;-75
2022/09/14 07:59:57;;;;;;;4.05;2.70;;;16.50;99.90;;;;;;5036436;28;20420;-75
2022/09/14 08:02:23;;;;;;;6.57;2.58;;;16.60;99.90;;;;;;5036150;28;20398;-75
2022/09/14 08:04:51;;;;;;;5.45;2.60;;;16.70;99.90;;;;;;5036222;28;20152;-74
2022/09/14 08:07:17;;;;;;;4.25;2.60;;;16.80;99.90;;;;;;5034697;28;20037;-74
2022/09/14 08:09:46;;;;;;;4.20;2.35;;;16.90;99.90;;;;;;5018370;28;20033;-75
2022/09/14 08:12:14;;;;;;;4.30;2.40;;;16.90;99.90;;;;;;5035846;28;20462;-74
2022/09/14 08:14:41;;;;;;;6.72;2.10;;;17.00;99.90;;;;;;5035102;28;20049;-75
2022/09/14 08:17:06;;;;;;;4.63;1.90;;;17.10;99.90;;;;;;5034659;28;20053;-74
2022/09/14 08:19:32;;;;;;;2.58;1.50;;;17.20;99.90;;;;;;5034695;28;20049;-74
2022/09/14 08:21:58;;;;;;;4.25;1.65;;;17.40;99.90;;;;;;5034602;28;20389;-74
2022/09/14 08:24:24;;;;;;;4.55;1.77;;;17.50;99.90;;;;;;5036355;28;20030;-75
2022/09/14 08:26:50;;;;;;;4.88;1.80;;;17.60;99.90;;;;;;5036047;28;20029;-75
2022/09/14 08:29:17;;;;;;;4.60;1.80;;;17.70;99.90;;;;;;5035728;28;20532;-75
2022/09/14 08:31:44;;;;;;;3.70;1.80;;;17.80;99.90;;;;;;5034248;28;20036;-75
2022/09/14 08:34:10;;;;;;;2.88;1.58;;;17.80;99.90;;;;;;5034752;28;20021;-75
2022/09/14 08:36:39;;;;;;;2.72;1.67;;;17.90;99.90;;;;;;5035829;28;20022;-75
2022/09/14 08:39:08;;;;;;;3.50;1.70;;;17.90;99.90;;;;;;5034273;28;20021;-75
2022/09/14 08:41:43;;;;;;;6.07;1.92;;;18.00;99.90;;;;;;5035431;28;20036;-75
2022/09/14 08:44:15;;;;;;;4.22;1.60;;;18.10;99.90;;;;;;5035754;28;20053;-75
2022/09/14 08:47:02;;;;;;;2.45;1.30;;;18.20;99.90;;;;;;5035406;28;20056;-75
2022/09/14 08:50:00;;;;;;;3.45;1.50;;;18.20;99.90;;;;;;5035650;28;20071;-75
2022/09/14 08:52:37;;;;;;;4.30;1.60;;;18.30;99.90;;;;;;5035267;28;20024;-75
2022/09/14 08:55:28;;;;;;;3.15;1.77;;;18.50;99.90;;;;;;5034251;28;20032;-74
2022/09/14 08:58:01;;;;;;;3.53;2.00;;;18.50;99.90;;;;;;5035177;28;20113;-75
2022/09/14 09:00:46;;;;;;;3.53;2.40;;;18.60;99.90;;;;;;5034945;28;20033;-75
2022/09/14 09:03:40;;;;;;;4.60;2.45;;;18.70;99.90;;;;;;5035095;28;20116;-75
2022/09/14 09:06:40;;;;;;;5.55;1.90;;;18.70;99.90;;;;;;5035308;28;20032;-75
2022/09/14 09:09:30;;;;;;;3.20;2.03;;;18.90;99.90;;;;;;5033809;28;20667;-75
2022/09/14 09:11:56;;;;;;;6.60;2.10;;;18.90;99.90;;;;;;5033515;28;20442;-75
2022/09/14 09:14:35;;;;;;;3.42;1.63;;;19.00;99.90;;;;;;5034209;28;20025;-75
2022/09/14 09:17:09;;;;;;;2.15;1.48;;;19.20;99.90;;;;;;5035077;28;20026;-75
2022/09/14 09:19:47;;;;;;;5.15;2.05;;;19.40;99.90;;;;;;5033201;28;20030;-75
2022/09/14 09:22:19;;;;;;;4.75;1.65;;;19.60;99.90;;;;;;5034623;28;20101;-75
2022/09/14 09:24:51;;;;;;;3.17;1.50;;;19.80;99.90;;;;;;5033549;28;20393;-75
2022/09/14 09:27:17;;;;;;;3.97;1.58;;;19.90;99.90;;;;;;5035175;28;20034;-75
2022/09/14 09:29:43;;;;;;;3.67;1.50;;;20.10;99.90;;;;;;5034236;28;20029;-75
2022/09/14 09:32:15;;;;;;;2.60;1.40;;;20.20;99.90;;;;;;5034686;28;20093;-75
2022/09/14 09:34:41;;;;;;;4.40;1.50;;;20.30;99.90;;;;;;5034444;28;20021;-75
2022/09/14 09:37:15;;;;;;;2.88;1.70;;;20.40;99.90;;;;;;5034434;28;20036;-75
2022/09/14 09:39:42;;;;;;;2.53;1.42;;;20.50;99.90;;;;;;5033129;28;20028;-75
2022/09/14 09:42:18;;;;;;;4.20;1.52;;;20.50;99.90;;;;;;5034216;28;20064;-75
2022/09/14 09:45:02;;;;;;;5.60;1.50;;;20.70;99.90;;;;;;5034877;28;20021;-75
2022/09/14 09:47:36;;;;;;;3.80;1.70;;;20.80;99.90;;;;;;5032866;28;20474;-75
2022/09/14 09:50:17;;;;;;;3.25;1.77;;;20.90;99.90;;;;;;5034070;28;20478;-74
2022/09/14 09:52:57;;;;;;;4.22;1.50;;;20.90;99.90;;;;;;5034626;28;20033;-74
2022/09/14 09:55:27;;;;;;;4.28;1.77;;;20.90;99.90;;;;;;5034463;28;20489;-74
2022/09/14 09:57:53;;;;;;;6.05;1.73;;;21.00;99.90;;;;;;5034097;28;20394;-74
2022/09/14 10:00:28;;;;;;;3.65;1.60;;;21.20;99.90;;;;;;5033885;28;20036;-75
2022/09/14 10:02:55;;;;;;;3.65;1.52;;;21.30;99.90;;;;;;5033802;28;20486;-74
2022/09/14 10:05:31;;;;;;;4.90;1.67;;;21.50;99.90;;;;;;5034144;28;20112;-74
2022/09/14 10:08:05;;;;;;;3.25;1.73;;;21.60;99.90;;;;;;5032628;28;20540;-74
2022/09/14 10:10:33;;;;;;;5.07;1.70;;;21.80;99.90;;;;;;5034026;28;20029;-74
2022/09/14 10:13:00;;;;;;;4.15;1.63;;;21.90;99.90;;;;;;5033717;28;20037;-74
2022/09/14 10:15:33;;;;;;;9.70;3.90;;;22.00;99.90;;;;;;5033772;28;20022;-74
2022/09/14 10:18:08;;;;;;;2.92;1.73;;;22.10;99.90;;;;;;5033735;28;20040;-74
2022/09/14 10:20:55;;;;;;;3.20;1.77;;;22.10;99.90;;;;;;5033842;28;20377;-74
2022/09/14 10:23:22;;;;;;;3.35;1.63;;;22.20;99.90;;;;;;5033732;28;20040;-74
2022/09/14 10:25:50;;;;;;;4.10;2.00;;;22.30;99.90;;;;;;5032332;28;20485;-74
2022/09/14 10:28:29;;;;;;;2.67;1.67;;;22.40;99.90;;;;;;5032341;28;20029;-74
2022/09/14 10:31:19;;;;;;;3.15;1.55;;;22.50;99.90;;;;;;5031294;28;20371;-74
2022/09/14 10:33:46;;;;;;;3.70;1.88;;;22.60;99.90;;;;;;5032329;28;20021;-74
2022/09/14 10:36:14;;;;;;;4.28;2.30;;;22.80;99.90;;;;;;5033465;28;20018;-75
2022/09/14 10:39:11;;;;;;;7.55;2.88;;;22.80;99.70;;;;;;5033441;28;20018;-74
2022/09/14 10:41:52;;;;;;;11.38;2.90;;;23.00;99.60;;;;;;5033317;28;20108;-74
2022/09/14 10:44:53;;;;;;;4.95;2.05;;;23.10;99.40;;;;;;5033695;28;20052;-74
2022/09/14 10:47:31;;;;;;;4.68;1.65;;;23.30;98.70;;;;;;5033823;28;20355;-74
2022/09/14 10:50:18;;;;;;;5.50;1.60;;;23.40;99.60;;;;;;5032124;28;20213;-74
2022/09/14 10:53:02;;;;;;;2.45;1.83;;;23.50;98.60;;;;;;5033297;28;20026;-74
2022/09/14 10:55:49;;;;;;;3.17;1.70;;;23.60;97.90;;;;;;5033570;28;20032;-74
2022/09/14 10:58:59;;;;;;;3.30;1.63;;;23.70;98.80;;;;;;5031991;28;20032;-74
2022/09/14 11:01:43;;;;;;;4.63;2.10;;;23.90;97.50;;;;;;5031309;28;20081;-74
2022/09/14 11:04:33;;;;;;;3.50;1.80;;;24.00;97.80;;;;;;5033180;28;20029;-73
2022/09/14 11:07:11;;;;;;;5.72;1.83;;;24.10;96.50;;;;;;5033202;28;20104;-74
2022/09/14 11:10:09;;;;;;;6.88;1.85;;;24.10;95.90;;;;;;5033193;28;20029;-74
2022/09/14 11:13:09;;;;;;;4.20;1.90;;;24.20;97.50;;;;;;5028853;28;20432;-74
2022/09/14 11:15:44;;;;;;;4.60;1.67;;;24.40;96.80;;;;;;5033038;28;20022;-74
2022/09/14 11:18:45;;;;;;;4.93;1.70;;;24.50;96.10;;;;;;5033394;28;20458;-74
2022/09/14 11:21:17;;;;;;;3.42;1.48;;;24.60;95.40;;;;;;5032600;28;20044;-73
2022/09/14 11:24:01;;;;;;;2.65;1.40;;;24.90;95.80;;;;;;5031797;28;20083;-73
2022/09/14 11:26:41;;;;;;;2.72;1.27;;;25.10;95.10;;;;;;5033103;28;20018;-73
2022/09/14 11:29:17;;;;;;;3.00;1.77;;;25.40;95.60;;;;;;5033060;28;20026;-73
2022/09/14 11:31:46;;;;;;;2.10;1.27;;;25.60;94.10;;;;;;5033157;28;20024;-73
2022/09/14 11:34:24;;;;;;;4.32;1.65;;;25.80;94.40;;;;;;5032975;28;20025;-74
2022/09/14 11:36:55;;;;;;;4.85;1.30;;;26.00;93.70;;;;;;5031673;28;20116;-73
2022/09/14 11:39:35;;;;;;;;;;;26.20;92.70;;;;;;5032070;28;20026;-73
2022/09/14 11:42:17;;;;;;;;;;;26.30;92.70;;;;;;5033136;28;19932;-73
2022/09/14 11:44:43;;;;;;;;;;;26.30;91.00;;;;;;5036655;28;20488;-73
2022/09/14 11:47:19;;;;;;;;;;;26.30;92.00;;;;;;5036181;28;20038;-73
2022/09/14 11:49:45;;;;;;;;;;;26.30;91.00;;;;;;5035110;28;19905;-73
2022/09/14 11:52:30;;;;;;;;;;;26.40;92.30;;;;;;5036478;28;19948;-74
2022/09/14 11:54:56;;;;;;;;;;;26.50;91.00;;;;;;5037375;28;19912;-74
2022/09/14 11:57:25;;;;;;;;;;;26.70;90.60;;;;;;5036739;28;19909;-73
2022/09/14 11:59:52;;;;;;;;;;;26.80;90.60;;;;;;5036613;28;19952;-73
2022/09/14 12:02:21;;;;;;;;;;;27.00;89.50;;;;;;5036726;28;19913;-73
2022/09/14 12:05:09;;;;;;;;;;;27.10;89.80;;;;;;5036405;28;19999;-73
2022/09/14 12:07:50;;;;;;;;;;;27.30;87.90;;;;;;5035008;28;20419;-73
2022/09/14 12:10:17;;;;;;;;;;;27.30;84.70;;;;;;5041533;28;20427;-70
2022/09/14 12:12:44;;;;;;;;;;;27.30;85.90;;;;;;5038408;28;19917;-73
2022/09/14 12:15:12;;;;;;;;;;;27.20;85.70;;;;;;5037997;28;19960;-73
2022/09/14 12:17:40;;;;;;;;;;;27.30;84.60;;;;;;5041141;28;19992;-72
2022/09/14 12:20:24;;;;;;;;;;;27.40;85.30;;;;;;5055789;28;19920;-73
2022/09/14 12:22:50;;;;;;;;;;;27.50;83.50;;;;;;5049979;28;19916;-73
2022/09/14 12:25:16;;;;;;;;;;;27.60;81.80;;;;;;5051639;28;20008;-72
2022/09/14 12:27:43;;;;;;;;;;;27.60;80.50;;;;;;5055476;28;19909;-73
2022/09/14 12:30:27;;;;;;;;;;;27.70;79.60;;;;;;5041113;28;19909;-73
2022/09/14 12:32:53;;;;;;;;;;;27.60;80.00;;;;;;5037573;28;19917;-73
2022/09/14 12:35:33;;;;;;;;;;;27.80;80.10;;;;;;5042319;28;19917;-73
2022/09/14 12:38:19;;;;;;;;;;;27.80;78.60;;;;;;5046928;28;20331;-73
2022/09/14 12:40:45;;;;;;;4.20;1.45;;;27.90;76.50;;;;;;5054609;28;20064;-72
2022/09/14 12:43:36;;;;;;;4.57;1.77;;;27.90;78.10;;;;;;5054766;28;20003;-73
2022/09/14 12:46:20;;;;;;;;;;;27.90;79.90;;;;;;5055065;28;20017;-73
2022/09/14 12:48:54;;;;;;;3.63;1.48;;;27.90;80.70;;;;;;5054750;28;19954;-73
2022/09/14 12:51:31;;;;;;;5.20;1.35;;;27.90;81.80;;;;;;5054592;28;20025;-73
2022/09/14 12:54:21;;;;;;;3.00;1.45;;;27.80;79.00;;;;;;5053283;28;20021;-73
2022/09/14 12:56:47;;;;;;;;;;;27.80;79.40;;;;;;5054076;28;20028;-73
2022/09/14 12:59:23;;;;;;;5.15;1.63;;;27.70;76.60;;;;;;5048594;28;20479;-73
2022/09/14 13:02:17;;;;;;;5.80;1.75;;;27.70;79.00;;;;;;5030082;28;20034;-70
2022/09/14 13:04:44;;;;;;;5.25;1.60;;;27.70;78.50;;;;;;5035141;28;19976;-72
2022/09/14 13:07:17;;;;;;;4.20;1.40;;;27.60;79.10;;;;;;5033447;28;19951;-73
2022/09/14 13:09:49;;;;;;;;;;;27.60;78.00;;;;;;5035081;28;20037;-70
2022/09/14 13:12:21;;;;;;;;;;;27.50;78.00;;;;;;5034670;28;20072;-73
2022/09/14 13:14:53;;;;;;;3.13;1.20;;;27.40;76.70;;;;;;5035121;28;20406;-72
2022/09/14 13:17:20;;;;;;;5.72;1.80;;;27.20;77.20;;;;;;5033811;28;20022;-73
2022/09/14 13:20:04;;;;;;;6.18;1.70;;;27.00;77.30;;;;;;5035132;28;20025;-72